Raquette Lake, New York
Current Conditions -  °F | °C
As of 1:51 AM on Thursday 23 Oct 2014 (Local Time) from KSLK Reporting Station
Overcast Overcast  
Wind Chill: 35°   Ceiling: 2200
Heat Index: 41°   Visibility: 10mi
Dew Point: 36°   Wind: 9mph
Humidity: 82%   Direction: 20°NNE
Pressure: 30.03"   Gusts: NA
Location:  43.81°N, 74.66°W
Report Text: KSLK 230551Z AUTO 02008KT 10SM OVC022 05/02 A3003 RMK AO2 SLP180 T00500022 10067 20050 58017
Loading
Personal Weather Stations






























Interactive Weather Map
Tropical Storm Tracking
New forecast layout! Learn more

10-Day Weather Forecast

Advertisements
Track Severe Weather on mobile